createdAt,value
2023-01-21T00:01:49.088Z,12.93
2023-01-21T00:04:16.868Z,10.63
2023-01-21T00:06:45.112Z,9.43
2023-01-21T00:09:15.083Z,12.90
2023-01-21T00:11:43.171Z,10.23
2023-01-21T00:14:12.605Z,12.10
2023-01-21T00:16:40.339Z,11.73
2023-01-21T00:19:08.512Z,12.83
2023-01-21T00:21:37.585Z,13.90
2023-01-21T00:24:05.739Z,12.87
2023-01-21T00:26:35.177Z,12.50
2023-01-21T00:29:04.223Z,13.47
2023-01-21T00:31:32.868Z,15.60
2023-01-21T00:34:00.781Z,13.17
2023-01-21T00:36:30.110Z,11.67
2023-01-21T00:38:58.210Z,11.47
2023-01-21T00:41:26.297Z,12.07
2023-01-21T00:43:55.444Z,11.77
2023-01-21T00:46:24.241Z,13.37
2023-01-21T00:48:52.261Z,10.40
2023-01-21T00:51:20.681Z,12.33
2023-01-21T00:53:48.452Z,15.30
2023-01-21T00:56:16.700Z,16.27
2023-01-21T00:58:44.997Z,13.50
2023-01-21T01:01:15.208Z,13.07
2023-01-21T01:03:43.486Z,15.03
2023-01-21T01:06:12.775Z,13.97
2023-01-21T01:08:40.494Z,10.50
2023-01-21T01:11:08.534Z,12.33
2023-01-21T01:13:36.956Z,10.20
2023-01-21T01:16:05.063Z,13.13
2023-01-21T01:18:35.138Z,10.77
2023-01-21T01:21:03.662Z,10.60
2023-01-21T01:23:31.840Z,9.27
2023-01-21T01:26:00.504Z,10.47
2023-01-21T01:28:28.796Z,10.27
2023-01-21T01:30:56.656Z,12.50
2023-01-21T01:33:25.439Z,11.37
2023-01-21T01:35:54.676Z,12.73
2023-01-21T01:38:23.667Z,10.70
2023-01-21T01:40:52.752Z,10.63
2023-01-21T01:43:22.793Z,9.80
2023-01-21T01:45:50.623Z,11.47
2023-01-21T01:48:20.311Z,13.93
2023-01-21T01:50:48.894Z,9.27
2023-01-21T01:53:20.041Z,12.43
2023-01-21T01:55:49.327Z,11.90
2023-01-21T01:58:18.391Z,12.10
2023-01-21T02:00:46.512Z,11.63
2023-01-21T02:03:32.234Z,12.10
2023-01-21T02:06:01.172Z,12.37
2023-01-21T02:08:32.958Z,10.83
2023-01-21T02:11:03.137Z,10.13
2023-01-21T02:13:33.351Z,12.70
2023-01-21T02:16:10.630Z,10.93
2023-01-21T02:18:41.882Z,10.90
2023-01-21T02:21:27.557Z,11.63
2023-01-21T02:24:13.153Z,14.07
2023-01-21T02:26:56.767Z,11.67
2023-01-21T02:29:33.208Z,11.10
2023-01-21T02:32:08.828Z,10.63
2023-01-21T02:34:45.049Z,15.13
2023-01-21T02:37:14.973Z,15.67
2023-01-21T02:39:50.743Z,15.63
2023-01-21T02:42:23.002Z,12.97
2023-01-21T02:44:54.715Z,13.73
2023-01-21T02:47:27.106Z,11.57
2023-01-21T02:49:58.219Z,8.67
2023-01-21T02:52:27.812Z,8.20
2023-01-21T02:54:56.963Z,9.50
2023-01-21T02:57:32.539Z,11.30
2023-01-21T03:00:01.210Z,9.23
2023-01-21T03:02:34.776Z,7.13
2023-01-21T03:05:10.135Z,8.50
2023-01-21T03:07:42.823Z,10.63
2023-01-21T03:10:11.895Z,13.73
2023-01-21T03:12:42.807Z,15.17
2023-01-21T03:15:29.413Z,11.87
2023-01-21T03:18:01.378Z,12.90
2023-01-21T03:20:31.819Z,12.70
2023-01-21T03:23:01.555Z,15.37
2023-01-21T03:25:31.651Z,13.13
2023-01-21T03:28:01.703Z,9.47
2023-01-21T03:30:30.362Z,8.23
2023-01-21T03:32:59.592Z,9.97
2023-01-21T03:35:30.082Z,10.00
2023-01-21T03:38:02.118Z,10.90
2023-01-21T03:40:31.863Z,11.13
2023-01-21T03:42:59.947Z,11.17
2023-01-21T03:45:36.687Z,15.80
2023-01-21T03:48:10.668Z,23.90
2023-01-21T03:50:40.052Z,15.63
2023-01-21T03:53:09.723Z,15.77
2023-01-21T03:55:37.814Z,14.33
2023-01-21T03:58:06.206Z,19.23
2023-01-21T04:00:34.561Z,15.93
2023-01-21T04:03:02.326Z,16.60
2023-01-21T04:05:30.401Z,15.50
2023-01-21T04:07:58.197Z,12.27
2023-01-21T04:10:27.476Z,12.83
2023-01-21T04:12:55.345Z,13.07
2023-01-21T04:15:23.209Z,16.97
2023-01-21T04:17:51.189Z,12.57
2023-01-21T04:20:19.995Z,10.13
2023-01-21T04:22:48.217Z,16.93
2023-01-21T04:25:16.306Z,14.97
2023-01-21T04:27:45.500Z,10.00
2023-01-21T04:30:14.819Z,10.17
2023-01-21T04:32:44.059Z,15.27
2023-01-21T04:35:12.071Z,11.73
2023-01-21T04:37:39.824Z,10.93
2023-01-21T04:40:08.155Z,11.03
2023-01-21T04:42:36.045Z,8.37
2023-01-21T04:45:05.777Z,9.13
2023-01-21T04:47:33.560Z,9.00
2023-01-21T04:50:02.271Z,8.63
2023-01-21T04:52:30.507Z,9.37
2023-01-21T04:55:00.708Z,9.77
2023-01-21T04:57:28.584Z,9.90
2023-01-21T04:59:56.515Z,10.73
2023-01-21T05:02:26.100Z,9.60
2023-01-21T05:04:54.257Z,9.70
2023-01-21T05:07:22.062Z,10.57
2023-01-21T05:09:49.845Z,10.60
2023-01-21T05:12:17.619Z,10.97
2023-01-21T05:14:45.412Z,10.53
2023-01-21T05:17:13.161Z,9.07
2023-01-21T05:19:42.251Z,10.13
2023-01-21T05:22:10.424Z,9.00
2023-01-21T05:24:38.356Z,7.83
2023-01-21T05:27:08.335Z,10.27
2023-01-21T05:29:36.028Z,9.03
2023-01-21T05:32:03.782Z,10.93
2023-01-21T05:34:31.591Z,8.60
2023-01-21T05:37:00.881Z,8.70
2023-01-21T05:39:28.736Z,9.27
2023-01-21T05:41:56.546Z,9.53
2023-01-21T05:44:24.603Z,11.23
2023-01-21T05:46:52.256Z,8.87
2023-01-21T05:49:20.628Z,10.50
2023-01-21T05:51:48.349Z,10.63
2023-01-21T05:54:17.658Z,9.93
2023-01-21T05:56:45.679Z,11.33
2023-01-21T05:59:13.807Z,9.23
2023-01-21T06:01:41.809Z,10.30
2023-01-21T06:04:09.652Z,10.20
2023-01-21T06:06:37.711Z,8.73
2023-01-21T06:09:08.280Z,8.13
2023-01-21T06:11:37.448Z,5.73
2023-01-21T06:14:05.161Z,7.97
2023-01-21T06:16:32.895Z,11.23
2023-01-21T06:19:00.809Z,10.47
2023-01-21T06:21:28.685Z,12.37
2023-01-21T06:23:57.470Z,14.47
2023-01-21T06:26:27.118Z,10.37
2023-01-21T06:28:58.229Z,13.37
2023-01-21T06:31:26.189Z,9.27
2023-01-21T06:33:54.611Z,12.30
2023-01-21T06:36:22.514Z,11.17
2023-01-21T06:38:50.419Z,11.10
2023-01-21T06:41:18.207Z,11.27
2023-01-21T06:43:47.200Z,9.17
2023-01-21T06:46:16.692Z,8.77
2023-01-21T06:48:44.345Z,6.40
2023-01-21T06:51:12.453Z,8.40
2023-01-21T06:53:40.401Z,8.23
2023-01-21T06:56:08.795Z,7.53
2023-01-21T06:58:36.645Z,8.17
2023-01-21T07:01:04.548Z,8.13
2023-01-21T07:03:33.611Z,9.30
2023-01-21T07:06:02.172Z,10.90
2023-01-21T07:08:29.895Z,10.10
2023-01-21T07:10:57.657Z,10.63
2023-01-21T07:13:25.512Z,8.87
2023-01-21T07:15:53.327Z,10.30
2023-01-21T07:18:21.525Z,8.77
2023-01-21T07:20:53.592Z,11.20
2023-01-21T07:23:22.381Z,11.33
2023-01-21T07:25:50.164Z,9.23
2023-01-21T07:28:18.220Z,12.87
2023-01-21T07:30:46.780Z,9.87
2023-01-21T07:33:15.471Z,14.20
2023-01-21T07:35:43.273Z,15.40
2023-01-21T07:38:12.714Z,14.00
2023-01-21T07:40:41.494Z,10.60
2023-01-21T07:43:09.742Z,7.93
2023-01-21T07:45:39.520Z,8.33
2023-01-21T07:48:07.827Z,8.10
2023-01-21T07:50:35.970Z,4.97
2023-01-21T07:53:04.749Z,10.03
2023-01-21T07:55:34.636Z,8.87
2023-01-21T07:58:02.892Z,10.77
2023-01-21T08:00:33.098Z,16.57
2023-01-21T08:03:00.873Z,8.60
2023-01-21T08:05:28.993Z,7.97
2023-01-21T08:07:58.381Z,29.13
2023-01-21T08:10:26.866Z,15.77
2023-01-21T08:12:56.191Z,11.57
2023-01-21T08:15:23.834Z,10.07
2023-01-21T08:17:51.608Z,8.03
2023-01-21T08:20:19.716Z,11.90
2023-01-21T08:22:47.914Z,12.10
2023-01-21T08:25:15.893Z,11.17
2023-01-21T08:27:44.441Z,11.10
2023-01-21T08:30:14.553Z,9.47
2023-01-21T08:32:42.174Z,10.57
2023-01-21T08:35:10.851Z,8.30
2023-01-21T08:37:39.713Z,11.83
2023-01-21T08:40:08.275Z,10.40
2023-01-21T08:42:36.191Z,10.10
2023-01-21T08:45:06.567Z,10.27
2023-01-21T08:47:36.068Z,12.50
2023-01-21T08:50:04.071Z,18.30
2023-01-21T08:52:31.796Z,7.73
2023-01-21T08:54:59.699Z,9.23
2023-01-21T08:57:28.030Z,8.33
2023-01-21T08:59:56.067Z,7.83
2023-01-21T09:02:24.007Z,9.73
2023-01-21T09:04:53.564Z,9.27
2023-01-21T09:07:21.589Z,9.07
2023-01-21T09:09:50.193Z,5.60
2023-01-21T09:12:17.953Z,7.27
2023-01-21T09:14:46.014Z,7.00
2023-01-21T09:17:15.502Z,4.33
2023-01-21T09:19:43.195Z,7.33
2023-01-21T09:22:14.107Z,3.30
2023-01-21T09:24:41.989Z,5.87
2023-01-21T09:27:10.432Z,3.80
2023-01-21T09:29:38.138Z,5.53
2023-01-21T09:32:06.399Z,4.10
2023-01-21T09:34:35.862Z,4.20
2023-01-21T09:37:05.165Z,6.93
2023-01-21T09:39:34.773Z,3.50
2023-01-21T09:42:02.590Z,4.33
2023-01-21T09:44:33.862Z,4.47
2023-01-21T09:47:03.829Z,5.73
2023-01-21T09:49:34.360Z,3.20
2023-01-21T09:52:10.206Z,4.80
2023-01-21T09:54:40.397Z,5.33
2023-01-21T09:57:17.576Z,8.33
2023-01-21T09:59:50.761Z,4.07
2023-01-21T10:02:22.712Z,5.60
2023-01-21T10:04:54.420Z,4.63
2023-01-21T10:07:24.802Z,3.80
2023-01-21T10:10:00.180Z,3.40
2023-01-21T10:12:34.441Z,3.90
2023-01-21T10:15:08.285Z,4.30
2023-01-21T10:17:42.736Z,5.23
2023-01-21T10:20:15.961Z,4.63
2023-01-21T10:22:46.290Z,5.17
2023-01-21T10:25:20.583Z,3.03
2023-01-21T10:27:48.633Z,3.43
2023-01-21T10:30:24.039Z,3.60
2023-01-21T10:32:53.645Z,3.50
2023-01-21T10:35:26.845Z,5.40
2023-01-21T10:37:59.946Z,3.83
2023-01-21T10:40:43.923Z,4.60
2023-01-21T10:43:15.849Z,6.17
2023-01-21T10:45:50.209Z,2.20
2023-01-21T10:48:20.948Z,4.30
2023-01-21T10:50:51.796Z,2.97
2023-01-21T10:53:22.392Z,4.00
2023-01-21T10:56:11.170Z,4.17
2023-01-21T10:58:43.628Z,5.23
2023-01-21T11:01:16.539Z,3.80
2023-01-21T11:03:45.569Z,7.57
2023-01-21T11:06:14.638Z,4.97
2023-01-21T11:08:45.310Z,4.37
2023-01-21T11:11:13.885Z,5.73
2023-01-21T11:13:43.711Z,3.57
2023-01-21T11:16:11.760Z,3.87
2023-01-21T11:18:40.882Z,2.60
2023-01-21T11:21:15.682Z,3.00
2023-01-21T11:23:43.874Z,2.47
2023-01-21T11:26:18.148Z,2.17
2023-01-21T11:28:47.483Z,6.53
2023-01-21T11:31:16.457Z,9.10
2023-01-21T11:33:45.334Z,5.17
2023-01-21T11:36:15.300Z,2.10
2023-01-21T11:38:43.583Z,2.53
2023-01-21T11:41:22.585Z,3.17
2023-01-21T11:43:54.323Z,2.70
2023-01-21T11:46:23.782Z,5.57
2023-01-21T11:48:55.023Z,3.57
2023-01-21T11:51:22.952Z,3.47
2023-01-21T11:53:58.196Z,3.87
2023-01-21T11:56:26.257Z,8.23
2023-01-21T11:58:55.925Z,7.90
2023-01-21T12:01:23.903Z,5.83
2023-01-21T12:03:53.994Z,5.60
2023-01-21T12:06:23.330Z,5.73
2023-01-21T12:08:52.523Z,2.67
2023-01-21T12:11:21.764Z,6.10
2023-01-21T12:13:52.046Z,6.17
2023-01-21T12:16:32.656Z,6.13
2023-01-21T12:19:16.697Z,5.43
2023-01-21T12:21:50.074Z,2.50
2023-01-21T12:24:23.602Z,3.13
2023-01-21T12:26:53.177Z,5.93
2023-01-21T12:29:29.853Z,3.70
2023-01-21T12:32:04.395Z,3.10
2023-01-21T12:34:34.882Z,20.10
2023-01-21T12:37:05.025Z,2.77
2023-01-21T12:39:35.068Z,7.70
2023-01-21T12:42:06.353Z,2.53
2023-01-21T12:44:39.623Z,4.93
2023-01-21T12:47:12.862Z,2.37
2023-01-21T12:49:49.797Z,2.33
2023-01-21T12:52:23.458Z,2.67
2023-01-21T12:54:54.003Z,3.23
2023-01-21T12:57:24.762Z,2.53
2023-01-21T12:59:54.301Z,2.30
2023-01-21T13:02:25.150Z,2.50
2023-01-21T13:04:55.825Z,5.47
2023-01-21T13:07:29.748Z,2.50
2023-01-21T13:10:01.582Z,3.23
2023-01-21T13:12:30.905Z,4.83
2023-01-21T13:15:02.118Z,5.90
2023-01-21T13:17:33.868Z,2.60
2023-01-21T13:20:01.833Z,4.00
2023-01-21T13:22:36.651Z,2.60
2023-01-21T13:25:19.565Z,3.60
2023-01-21T13:27:54.083Z,3.00
2023-01-21T13:30:26.152Z,4.00
2023-01-21T13:33:01.343Z,4.97
2023-01-21T13:35:34.227Z,2.83
2023-01-21T13:38:08.108Z,5.43
2023-01-21T13:40:40.406Z,4.57
2023-01-21T13:43:20.158Z,3.03
2023-01-21T13:46:02.338Z,2.90
2023-01-21T13:48:51.554Z,3.37
2023-01-21T13:51:25.246Z,5.03
2023-01-21T13:53:58.842Z,4.73
2023-01-21T13:56:31.895Z,3.40
2023-01-21T13:59:03.013Z,4.10
2023-01-21T14:01:33.620Z,5.20
2023-01-21T14:04:05.697Z,3.57
2023-01-21T14:06:36.395Z,3.57
2023-01-21T14:09:07.127Z,4.83
2023-01-21T14:11:38.521Z,4.67
2023-01-21T14:14:18.652Z,3.47
2023-01-21T14:17:01.276Z,4.10
2023-01-21T14:19:44.767Z,3.27
2023-01-21T14:22:20.442Z,3.90
2023-01-21T14:24:54.018Z,3.87
2023-01-21T14:27:26.043Z,2.83
2023-01-21T14:29:56.045Z,4.63
2023-01-21T14:32:26.455Z,5.13
2023-01-21T14:35:03.684Z,4.13
2023-01-21T14:37:34.464Z,4.13
2023-01-21T14:40:06.181Z,3.90
2023-01-21T14:42:44.666Z,4.43
2023-01-21T14:45:13.539Z,5.87
2023-01-21T14:47:42.519Z,4.20
2023-01-21T14:50:11.874Z,4.63
2023-01-21T14:52:43.609Z,4.77
2023-01-21T14:55:26.961Z,5.00
2023-01-21T14:57:56.125Z,6.37
2023-01-21T15:00:25.132Z,5.03
2023-01-21T15:02:54.663Z,6.77
2023-01-21T15:05:25.885Z,5.27
2023-01-21T15:08:03.850Z,4.70
2023-01-21T15:10:33.774Z,7.30
2023-01-21T15:13:03.568Z,7.37
2023-01-21T15:15:34.532Z,4.87
2023-01-21T15:18:04.764Z,6.13
2023-01-21T15:21:00.789Z,6.83
2023-01-21T15:23:40.793Z,7.80
2023-01-21T15:26:36.771Z,5.13
2023-01-21T15:29:24.264Z,8.27
2023-01-21T15:31:53.204Z,6.27
2023-01-21T15:34:22.130Z,9.93
2023-01-21T15:36:53.257Z,7.40
2023-01-21T15:39:26.677Z,7.20
2023-01-21T15:42:00.326Z,8.60
2023-01-21T15:44:35.028Z,7.93
2023-01-21T15:47:08.258Z,8.97
2023-01-21T15:49:41.003Z,8.20
2023-01-21T15:52:15.615Z,7.97
2023-01-21T15:54:47.558Z,8.33
2023-01-21T15:57:33.491Z,8.27
2023-01-21T16:00:09.665Z,8.40
2023-01-21T16:02:44.354Z,9.10
2023-01-21T16:05:18.696Z,9.27
2023-01-21T16:07:54.174Z,14.10
2023-01-21T16:10:27.659Z,13.07
2023-01-21T16:13:01.462Z,14.67
2023-01-21T16:15:33.637Z,17.40
2023-01-21T16:18:05.458Z,16.83
2023-01-21T16:20:33.783Z,13.07
2023-01-21T16:23:03.035Z,8.03
2023-01-21T16:25:32.488Z,10.73
2023-01-21T16:28:00.571Z,10.20
2023-01-21T16:30:29.630Z,9.50
2023-01-21T16:33:10.496Z,7.83
2023-01-21T16:35:47.160Z,9.43
2023-01-21T16:38:15.759Z,10.23
2023-01-21T16:40:44.949Z,12.27
2023-01-21T16:43:16.944Z,7.87
2023-01-21T16:45:50.708Z,9.90
2023-01-21T16:48:23.411Z,7.73
2023-01-21T16:50:51.634Z,9.07
2023-01-21T16:53:20.222Z,9.57
2023-01-21T16:55:52.604Z,10.23
2023-01-21T16:58:21.875Z,10.30
2023-01-21T17:00:59.432Z,12.07
2023-01-21T17:03:27.286Z,10.83
2023-01-21T17:05:57.402Z,11.97
2023-01-21T17:08:25.538Z,12.27
2023-01-21T17:10:59.808Z,15.70
2023-01-21T17:13:29.344Z,16.83
2023-01-21T17:15:58.855Z,16.07
2023-01-21T17:18:28.050Z,12.33
2023-01-21T17:21:00.936Z,13.63
2023-01-21T17:23:30.408Z,12.87
2023-01-21T17:26:02.259Z,10.13
2023-01-21T17:28:31.147Z,11.23
2023-01-21T17:31:13.159Z,8.27
2023-01-21T17:33:41.072Z,16.77
2023-01-21T17:36:10.409Z,9.00
2023-01-21T17:38:41.833Z,10.40
2023-01-21T17:41:14.406Z,8.13
2023-01-21T17:43:50.000Z,9.53
2023-01-21T17:46:23.450Z,9.20
2023-01-21T17:48:52.851Z,9.13
2023-01-21T17:51:23.164Z,9.03
2023-01-21T17:53:53.166Z,14.63
2023-01-21T17:56:35.930Z,8.83
2023-01-21T17:59:05.493Z,11.33
2023-01-21T18:01:35.761Z,10.23
2023-01-21T18:04:03.553Z,10.33
2023-01-21T18:06:33.260Z,10.87
2023-01-21T18:09:02.755Z,11.03
2023-01-21T18:11:30.490Z,8.17
2023-01-21T18:13:59.576Z,8.73
2023-01-21T18:16:29.142Z,9.63
2023-01-21T18:18:57.037Z,8.27
2023-01-21T18:21:24.809Z,7.37
2023-01-21T18:23:55.040Z,11.83
2023-01-21T18:26:27.524Z,10.80
2023-01-21T18:28:55.799Z,12.33
2023-01-21T18:31:24.072Z,11.60
2023-01-21T18:33:53.428Z,14.07
2023-01-21T18:36:21.240Z,15.13
2023-01-21T18:38:49.023Z,13.40
2023-01-21T18:41:17.036Z,8.73
2023-01-21T18:43:47.914Z,12.70
2023-01-21T18:46:16.505Z,13.87
2023-01-21T18:48:44.677Z,14.37
2023-01-21T18:51:14.772Z,17.33
2023-01-21T18:53:42.947Z,12.53
2023-01-21T18:56:12.876Z,15.67
2023-01-21T18:58:40.615Z,15.53
2023-01-21T19:01:21.336Z,16.57
2023-01-21T19:03:50.650Z,12.87
2023-01-21T19:06:19.809Z,12.47
2023-01-21T19:08:48.831Z,18.33
2023-01-21T19:11:27.379Z,13.40
2023-01-21T19:13:55.305Z,11.10
2023-01-21T19:16:23.103Z,12.40
2023-01-21T19:18:52.157Z,12.77
2023-01-21T19:21:21.661Z,11.30
2023-01-21T19:23:49.479Z,15.37
2023-01-21T19:26:17.528Z,15.03
2023-01-21T19:28:45.356Z,10.97
2023-01-21T19:31:13.402Z,8.37
2023-01-21T19:33:43.106Z,12.03
2023-01-21T19:36:16.181Z,13.47
2023-01-21T19:38:47.065Z,15.13
2023-01-21T19:41:14.752Z,15.90
2023-01-21T19:43:43.152Z,15.00
2023-01-21T19:46:11.435Z,15.47
2023-01-21T19:48:39.307Z,15.50
2023-01-21T19:51:07.919Z,16.83
2023-01-21T19:53:35.740Z,15.87
2023-01-21T19:56:05.243Z,18.13
2023-01-21T19:58:33.672Z,16.77
2023-01-21T20:01:01.575Z,16.43
2023-01-21T20:03:30.604Z,17.90
2023-01-21T20:06:01.166Z,14.00
2023-01-21T20:08:31.072Z,18.90
2023-01-21T20:10:58.818Z,18.03
2023-01-21T20:13:31.507Z,15.67
2023-01-21T20:16:02.958Z,13.83
2023-01-21T20:18:32.824Z,13.33
2023-01-21T20:21:01.602Z,9.43
2023-01-21T20:23:32.795Z,13.27
2023-01-21T20:26:01.067Z,13.17
2023-01-21T20:28:35.075Z,13.07
2023-01-21T20:31:06.668Z,14.70
2023-01-21T20:33:35.486Z,10.80
2023-01-21T20:36:05.168Z,10.23
2023-01-21T20:38:34.473Z,11.70
2023-01-21T20:41:03.108Z,14.13
2023-01-21T20:43:32.700Z,10.73
2023-01-21T20:46:02.282Z,13.00
2023-01-21T20:48:33.067Z,11.30
2023-01-21T20:51:01.109Z,12.37
2023-01-21T20:53:29.349Z,11.97
2023-01-21T20:55:59.650Z,12.33
2023-01-21T20:58:28.175Z,13.93
2023-01-21T21:00:58.008Z,10.87
2023-01-21T21:03:25.837Z,13.97
2023-01-21T21:05:53.545Z,13.53
2023-01-21T21:08:22.198Z,14.20
2023-01-21T21:10:50.898Z,14.10
2023-01-21T21:13:18.723Z,15.07
2023-01-21T21:15:46.867Z,13.80
2023-01-21T21:18:16.600Z,14.50
2023-01-21T21:20:44.374Z,14.87
2023-01-21T21:23:13.974Z,15.70
2023-01-21T21:25:42.860Z,10.03
2023-01-21T21:28:11.358Z,10.90
2023-01-21T21:30:39.188Z,11.80
2023-01-21T21:33:09.058Z,12.07
2023-01-21T21:35:39.921Z,9.90
2023-01-21T21:38:08.860Z,9.70
2023-01-21T21:40:37.098Z,9.80
2023-01-21T21:43:22.872Z,15.30
2023-01-21T21:46:08.255Z,12.30
2023-01-21T21:48:39.214Z,10.80
2023-01-21T21:51:09.403Z,12.23
2023-01-21T21:53:37.114Z,13.17
2023-01-21T21:56:05.646Z,14.20
2023-01-21T21:58:33.476Z,18.47
2023-01-21T22:01:07.765Z,13.07
2023-01-21T22:03:35.466Z,11.73
2023-01-21T22:06:04.502Z,14.40
2023-01-21T22:08:34.226Z,15.27
2023-01-21T22:11:02.829Z,15.77
2023-01-21T22:13:31.316Z,15.83
2023-01-21T22:15:59.987Z,15.43
2023-01-21T22:18:28.772Z,15.03
2023-01-21T22:21:00.860Z,19.20
2023-01-21T22:23:29.931Z,31.47
2023-01-21T22:26:00.751Z,34.97
2023-01-21T22:28:28.637Z,37.40
2023-01-21T22:30:56.570Z,36.37
2023-01-21T22:33:24.301Z,39.07
2023-01-21T22:35:52.233Z,52.20
2023-01-21T22:38:20.668Z,41.03
2023-01-21T22:40:53.471Z,44.87
2023-01-21T22:43:23.731Z,47.07
2023-01-21T22:45:51.901Z,47.03
2023-01-21T22:48:19.715Z,48.47
2023-01-21T22:50:52.466Z,48.43
2023-01-21T22:53:21.011Z,45.20
2023-01-21T22:55:54.966Z,38.90
2023-01-21T22:58:24.331Z,36.77
2023-01-21T23:00:52.375Z,41.53
2023-01-21T23:03:20.802Z,41.90
2023-01-21T23:05:48.908Z,41.10
2023-01-21T23:08:17.048Z,40.87
2023-01-21T23:10:45.313Z,39.40
2023-01-21T23:13:13.542Z,36.27
2023-01-21T23:15:44.598Z,27.77
2023-01-21T23:18:13.158Z,35.23
2023-01-21T23:20:42.373Z,37.23
2023-01-21T23:23:10.095Z,34.73
2023-01-21T23:25:40.652Z,23.63
2023-01-21T23:28:08.677Z,23.50
2023-01-21T23:30:37.009Z,29.97
2023-01-21T23:33:07.196Z,31.20
2023-01-21T23:35:35.224Z,34.17
2023-01-21T23:38:03.746Z,22.80
2023-01-21T23:40:31.696Z,27.47
2023-01-21T23:42:59.631Z,24.33
2023-01-21T23:45:28.503Z,25.53
2023-01-21T23:47:56.316Z,25.13
2023-01-21T23:50:26.112Z,24.40
2023-01-21T23:52:54.070Z,25.03
2023-01-21T23:55:21.971Z,24.37
2023-01-21T23:57:49.715Z,19.60
